Time;durP1;ratioP1;P1;durP2;ratioP2;P2;SDS_P1;SDS_P2;PMS_P1;PMS_P2;Temp;Humidity;BMP_temperature;BMP_pressure;BME280_temperature;BME280_humidity;BME280_pressure;Samples;Min_cycle;Max_cycle;Signal;HPM_P1;HPM_P2
2022/03/29 00:01:03;;;;;;;24.33;16.63;;;;;;;;;;5055340;28;20568;-64
2022/03/29 00:03:28;;;;;;;30.17;16.10;;;;;;;;;;5055294;28;20175;-64
2022/03/29 00:05:54;;;;;;;31.17;17.93;;;;;;;;;;5037296;28;20646;-64
2022/03/29 00:08:20;;;;;;;25.83;17.60;;;;;;;;;;5055298;28;20639;-64
2022/03/29 00:10:46;;;;;;;22.73;17.43;;;;;;;;;;5055332;28;20551;-64
2022/03/29 00:13:12;;;;;;;25.33;16.77;;;;;;;;;;5055128;28;20170;-64
2022/03/29 00:15:38;;;;;;;24.23;17.13;;;;;;;;;;5055419;28;20191;-65
2022/03/29 00:18:04;;;;;;;24.73;17.57;;;;;;;;;;5037465;28;20243;-64
2022/03/29 00:20:30;;;;;;;29.33;19.57;;;;;;;;;;5056155;28;20174;-65
2022/03/29 00:22:56;;;;;;;25.77;17.30;;;;;;;;;;5056669;28;20202;-64
2022/03/29 00:25:22;;;;;;;27.53;18.10;;;;;;;;;;5057283;28;20221;-65
2022/03/29 00:27:49;;;;;;;25.07;17.60;;;;;;;;;;5058871;28;20220;-64
2022/03/29 00:30:16;;;;;;;28.73;18.60;;;;;;;;;;5058643;28;20198;-65
2022/03/29 00:32:43;;;;;;;25.33;18.20;;;;;;;;;;5054877;28;20178;-65
2022/03/29 00:35:09;;;;;;;27.27;18.73;;;;;;;;;;5054751;28;20225;-65
2022/03/29 00:37:36;;;;;;;26.00;17.63;;;;;;;;;;5054871;28;20174;-65
2022/03/29 00:40:03;;;;;;;23.13;17.90;;;;;;;;;;5054712;28;20182;-65
2022/03/29 00:42:28;;;;;;;25.23;17.60;;;;;;;;;;5054821;28;20651;-65
2022/03/29 00:44:56;;;;;;;28.30;18.20;;;;;;;;;;5054812;28;20201;-65
2022/03/29 00:47:22;;;;;;;24.60;17.53;;;;;;;;;;5054444;28;20197;-65
2022/03/29 00:49:48;;;;;;;26.70;17.47;;;;;;;;;;5054654;28;20654;-65
2022/03/29 00:52:14;;;;;;;30.23;18.03;;;;;;;;;;5036493;28;20731;-65
2022/03/29 00:54:41;;;;;;;29.23;18.07;;;;;;;;;;5053332;28;20225;-65
2022/03/29 00:57:07;;;;;;;27.67;17.93;;;;;;;;;;5036475;28;20190;-65
2022/03/29 00:59:33;;;;;;;30.97;19.03;;;;;;;;;;5036313;28;20187;-65
2022/03/29 01:02:00;;;;;;;28.00;19.13;;;;;;;;;;5036218;28;20210;-65
2022/03/29 01:04:27;;;;;;;24.80;18.87;;;;;;;;;;5054213;28;20666;-65
2022/03/29 01:06:53;;;;;;;26.17;18.80;;;;;;;;;;5054346;28;20170;-65
2022/03/29 01:09:19;;;;;;;25.27;18.03;;;;;;;;;;5054181;28;20229;-65
2022/03/29 01:11:45;;;;;;;29.60;19.33;;;;;;;;;;5053838;28;20663;-65
2022/03/29 01:14:11;;;;;;;29.90;19.27;;;;;;;;;;5054147;28;20182;-65
2022/03/29 01:19:23;;;;;;;28.70;19.30;;;;;;;;;;5054256;28;20174;-66
2022/03/29 01:22:14;;;;;;;27.27;19.90;;;;;;;;;;5053665;28;20202;-66
2022/03/29 01:24:42;;;;;;;34.83;20.47;;;;;;;;;;5049857;28;20241;-65
2022/03/29 01:27:09;;;;;;;25.20;19.73;;;;;;;;;;5054066;28;20257;-65
2022/03/29 01:29:35;;;;;;;25.83;18.27;;;;;;;;;;5035658;28;20179;-65
2022/03/29 01:32:02;;;;;;;28.20;20.33;;;;;;;;;;5035839;28;20178;-65
2022/03/29 01:34:28;;;;;;;26.83;20.00;;;;;;;;;;5053767;28;20198;-65
2022/03/29 01:36:55;;;;;;;29.33;20.87;;;;;;;;;;5035553;28;20189;-65
2022/03/29 01:39:21;;;;;;;28.50;19.87;;;;;;;;;;5053539;28;20190;-65
2022/03/29 01:41:51;;;;;;;27.40;20.20;;;;;;;;;;5053388;28;20198;-65
2022/03/29 01:44:16;;;;;;;28.97;21.13;;;;;;;;;;5053385;28;20178;-64
2022/03/29 01:46:43;;;;;;;31.20;21.80;;;;;;;;;;5053357;28;20700;-65
2022/03/29 01:49:10;;;;;;;30.20;19.70;;;;;;;;;;5053701;28;20594;-65
2022/03/29 01:51:36;;;;;;;29.13;21.73;;;;;;;;;;5053773;28;20174;-65
2022/03/29 01:54:03;;;;;;;29.60;21.57;;;;;;;;;;5035296;28;20282;-65
2022/03/29 01:56:31;;;;;;;29.90;21.77;;;;;;;;;;5053262;28;20206;-65
2022/03/29 01:58:57;;;;;;;30.23;21.73;;;;;;;;;;5053452;28;20188;-66
2022/03/29 02:01:23;;;;;;;28.87;21.77;;;;;;;;;;5053072;28;20202;-65
2022/03/29 02:03:49;;;;;;;29.67;20.90;;;;;;;;;;5053281;28;20170;-65
2022/03/29 02:06:15;;;;;;;27.37;21.17;;;;;;;;;;5056436;28;20205;-65
2022/03/29 02:08:41;;;;;;;32.33;22.67;;;;;;;;;;5059754;28;20182;-66
2022/03/29 02:11:08;;;;;;;31.07;22.77;;;;;;;;;;5060405;28;20236;-65
2022/03/29 02:13:34;;;;;;;28.47;21.90;;;;;;;;;;5041855;28;20182;-65
2022/03/29 02:16:01;;;;;;;27.83;21.27;;;;;;;;;;5041789;28;20198;-65
2022/03/29 02:18:27;;;;;;;30.90;22.47;;;;;;;;;;5060050;28;20662;-65
2022/03/29 02:20:53;;;;;;;30.57;23.10;;;;;;;;;;5041719;28;20189;-65
2022/03/29 02:23:19;;;;;;;30.87;22.10;;;;;;;;;;5061214;28;20204;-65
2022/03/29 02:25:46;;;;;;;31.63;21.40;;;;;;;;;;5061556;28;20214;-65
2022/03/29 02:28:12;;;;;;;28.80;21.93;;;;;;;;;;5062864;28;20175;-65
2022/03/29 02:30:38;;;;;;;30.20;22.17;;;;;;;;;;5061291;28;20520;-65
2022/03/29 02:33:05;;;;;;;33.37;23.03;;;;;;;;;;5060412;28;20186;-65
2022/03/29 02:35:31;;;;;;;32.80;22.40;;;;;;;;;;5059971;28;20190;-65
2022/03/29 02:37:57;;;;;;;34.17;24.10;;;;;;;;;;5059679;28;20204;-65
2022/03/29 02:40:23;;;;;;;34.70;25.23;;;;;;;;;;5059597;28;20179;-66
2022/03/29 02:42:51;;;;;;;32.03;23.17;;;;;;;;;;5059582;28;20677;-65
2022/03/29 02:45:19;;;;;;;30.07;23.03;;;;;;;;;;5041550;28;20194;-66
2022/03/29 02:47:46;;;;;;;36.30;25.13;;;;;;;;;;5059354;28;20174;-65
2022/03/29 02:50:12;;;;;;;31.20;23.33;;;;;;;;;;5059939;28;20257;-65
2022/03/29 02:52:44;;;;;;;31.97;24.23;;;;;;;;;;5041473;28;20542;-65
2022/03/29 02:55:11;;;;;;;34.60;24.67;;;;;;;;;;5041556;28;20233;-65
2022/03/29 02:57:37;;;;;;;34.97;24.20;;;;;;;;;;5059499;28;20193;-65
2022/03/29 03:00:05;;;;;;;35.30;24.20;;;;;;;;;;5041519;28;20561;-65
2022/03/29 03:02:32;;;;;;;33.47;24.17;;;;;;;;;;5041362;28;20739;-65
2022/03/29 03:04:59;;;;;;;35.57;25.47;;;;;;;;;;5059260;28;20194;-65
2022/03/29 03:07:24;;;;;;;36.13;25.23;;;;;;;;;;5059426;28;20209;-65
2022/03/29 03:09:50;;;;;;;34.60;23.93;;;;;;;;;;5059370;28;20206;-65
2022/03/29 03:12:16;;;;;;;33.77;26.37;;;;;;;;;;5059286;28;20182;-65
2022/03/29 03:14:43;;;;;;;35.90;25.83;;;;;;;;;;5059630;28;20198;-65
2022/03/29 03:17:09;;;;;;;35.10;24.83;;;;;;;;;;5057484;28;20547;-65
2022/03/29 03:19:35;;;;;;;39.47;26.77;;;;;;;;;;5056124;28;20193;-65
2022/03/29 03:22:01;;;;;;;38.83;26.10;;;;;;;;;;5038105;28;20209;-65
2022/03/29 03:24:27;;;;;;;33.73;25.97;;;;;;;;;;5037966;28;20246;-65
2022/03/29 03:26:53;;;;;;;34.50;26.87;;;;;;;;;;5055919;28;20623;-65
2022/03/29 03:29:19;;;;;;;33.73;25.73;;;;;;;;;;5056177;28;20185;-65
2022/03/29 03:31:44;;;;;;;37.67;26.47;;;;;;;;;;5056062;28;20182;-65
2022/03/29 03:34:10;;;;;;;38.30;28.00;;;;;;;;;;5037763;28;20189;-65
2022/03/29 03:36:36;;;;;;;36.87;26.23;;;;;;;;;;5050185;22;20226;-62
2022/03/29 03:39:03;;;;;;;36.37;27.03;;;;;;;;;;5036494;28;20168;-62
2022/03/29 03:41:29;;;;;;;40.33;27.93;;;;;;;;;;5036587;28;20261;-62
2022/03/29 03:43:55;;;;;;;42.63;29.00;;;;;;;;;;5036310;28;20176;-62
2022/03/29 03:46:21;;;;;;;37.40;28.23;;;;;;;;;;5035936;28;20210;-62
2022/03/29 03:48:47;;;;;;;39.00;28.37;;;;;;;;;;5036118;28;20175;-62
2022/03/29 03:51:13;;;;;;;41.47;29.13;;;;;;;;;;5018464;28;20183;-62
2022/03/29 03:53:39;;;;;;;37.07;28.00;;;;;;;;;;5018531;28;20183;-62
2022/03/29 03:56:05;;;;;;;41.50;29.73;;;;;;;;;;5036139;28;20199;-62
2022/03/29 03:58:31;;;;;;;44.33;28.37;;;;;;;;;;5035936;28;20187;-62
2022/03/29 04:00:57;;;;;;;38.13;28.77;;;;;;;;;;5035699;28;20179;-62
2022/03/29 04:03:23;;;;;;;44.67;30.40;;;;;;;;;;5035794;28;20206;-62
2022/03/29 04:05:49;;;;;;;40.77;29.83;;;;;;;;;;5035667;28;20199;-62
2022/03/29 04:08:15;;;;;;;41.47;29.63;;;;;;;;;;5035947;28;20581;-62
2022/03/29 04:10:41;;;;;;;40.10;29.57;;;;;;;;;;5035600;28;20179;-62
2022/03/29 04:13:08;;;;;;;38.17;28.90;;;;;;;;;;5035883;28;20206;-62
2022/03/29 04:15:34;;;;;;;41.10;28.90;;;;;;;;;;5018543;28;20246;-62
2022/03/29 04:18:01;;;;;;;37.97;29.13;;;;;;;;;;5035644;28;20187;-62
2022/03/29 04:20:29;;;;;;;40.50;30.10;;;;;;;;;;5017729;28;20183;-63
2022/03/29 04:22:55;;;;;;;45.13;30.40;;;;;;;;;;5018110;28;20213;-62
2022/03/29 04:25:21;;;;;;;39.33;29.60;;;;;;;;;;5035154;28;20278;-62
2022/03/29 04:27:47;;;;;;;43.87;30.67;;;;;;;;;;5017529;28;20288;-62
2022/03/29 04:30:13;;;;;;;43.50;30.23;;;;;;;;;;5035542;28;20179;-62
2022/03/29 04:32:39;;;;;;;40.53;30.67;;;;;;;;;;5035215;28;20190;-62
2022/03/29 04:35:05;;;;;;;46.73;31.63;;;;;;;;;;5035074;28;20555;-63
2022/03/29 04:37:31;;;;;;;39.57;30.30;;;;;;;;;;5035181;28;20233;-62
2022/03/29 04:39:57;;;;;;;39.93;31.90;;;;;;;;;;5034899;28;20592;-62
2022/03/29 04:42:23;;;;;;;46.73;30.80;;;;;;;;;;5017429;28;20679;-62
2022/03/29 04:44:49;;;;;;;43.53;31.60;;;;;;;;;;5017295;28;20194;-62
2022/03/29 04:47:15;;;;;;;43.73;32.27;;;;;;;;;;5035315;28;20199;-63
2022/03/29 04:49:41;;;;;;;39.80;30.47;;;;;;;;;;5035282;28;20179;-62
2022/03/29 04:52:07;;;;;;;43.13;30.47;;;;;;;;;;5017372;28;20175;-62
2022/03/29 04:54:33;;;;;;;44.13;30.83;;;;;;;;;;5034935;28;20175;-63
2022/03/29 04:57:03;;;;;;;47.63;32.00;;;;;;;;;;5035166;28;20285;-62
2022/03/29 04:59:29;;;;;;;41.17;31.87;;;;;;;;;;5034892;28;20183;-62
2022/03/29 05:01:55;;;;;;;41.67;28.83;;;;;;;;;;5017272;28;20209;-62
2022/03/29 05:04:21;;;;;;;49.23;33.23;;;;;;;;;;5034906;28;20178;-63
2022/03/29 05:06:47;;;;;;;49.70;34.23;;;;;;;;;;5035071;28;20591;-62
2022/03/29 05:09:13;;;;;;;48.30;34.87;;;;;;;;;;5035041;28;20535;-62
2022/03/29 05:11:39;;;;;;;47.67;35.53;;;;;;;;;;5017041;28;20651;-63
2022/03/29 05:14:05;;;;;;;49.97;34.67;;;;;;;;;;5017246;28;20183;-63
2022/03/29 05:16:31;;;;;;;48.03;34.13;;;;;;;;;;5017080;28;20248;-62
2022/03/29 05:18:57;;;;;;;50.20;33.60;;;;;;;;;;5034989;28;20186;-62
2022/03/29 05:21:23;;;;;;;49.87;36.47;;;;;;;;;;5034501;28;20209;-63
2022/03/29 05:23:49;;;;;;;54.67;35.93;;;;;;;;;;5035207;28;20183;-62
2022/03/29 05:26:15;;;;;;;52.37;35.87;;;;;;;;;;5017250;28;20632;-62
2022/03/29 05:28:41;;;;;;;49.27;36.60;;;;;;;;;;5035623;28;20650;-63
2022/03/29 05:31:07;;;;;;;52.17;35.00;;;;;;;;;;5034779;28;20665;-63
2022/03/29 05:33:33;;;;;;;48.60;35.20;;;;;;;;;;5035167;28;20552;-63
2022/03/29 05:35:59;;;;;;;59.07;34.30;;;;;;;;;;5034691;28;20630;-62
2022/03/29 05:38:25;;;;;;;45.93;35.53;;;;;;;;;;5034759;28;20175;-63
2022/03/29 05:40:51;;;;;;;53.83;36.00;;;;;;;;;;5034566;28;20186;-63
2022/03/29 05:43:17;;;;;;;49.93;35.07;;;;;;;;;;5035303;28;20249;-62
2022/03/29 05:45:45;;;;;;;47.63;36.63;;;;;;;;;;5017378;28;20203;-63
2022/03/29 05:50:55;;;;;;;49.00;35.50;;;;;;;;;;5034935;28;20246;-63
2022/03/29 05:53:22;;;;;;;47.97;34.10;;;;;;;;;;5016961;28;20187;-63
2022/03/29 05:55:48;;;;;;;51.17;36.93;;;;;;;;;;5034699;28;20230;-63
2022/03/29 05:58:16;;;;;;;52.37;36.33;;;;;;;;;;5016837;28;20639;-62
2022/03/29 06:00:42;;;;;;;49.00;36.70;;;;;;;;;;5016997;28;20566;-63
2022/03/29 06:03:08;;;;;;;49.83;37.33;;;;;;;;;;5016789;28;20202;-63
2022/03/29 06:05:36;;;;;;;49.80;36.80;;;;;;;;;;5034547;28;20256;-63
2022/03/29 06:08:02;;;;;;;53.40;36.87;;;;;;;;;;5034568;28;20254;-63
2022/03/29 06:10:27;;;;;;;52.33;36.93;;;;;;;;;;5034710;28;20670;-63
2022/03/29 06:12:54;;;;;;;54.23;36.70;;;;;;;;;;5034785;28;20179;-63
2022/03/29 06:15:20;;;;;;;52.23;37.30;;;;;;;;;;5035399;28;20195;-63
2022/03/29 06:17:46;;;;;;;52.47;36.90;;;;;;;;;;5035703;28;20661;-62
2022/03/29 06:20:12;;;;;;;50.13;38.23;;;;;;;;;;5035660;28;20179;-63
2022/03/29 06:22:44;;;;;;;54.83;37.13;;;;;;;;;;5035621;28;20206;-63
2022/03/29 06:25:11;;;;;;;52.03;36.00;;;;;;;;;;5017389;28;20167;-63
2022/03/29 06:27:37;;;;;;;52.77;37.93;;;;;;;;;;5017495;28;20186;-63
2022/03/29 06:30:04;;;;;;;52.27;37.67;;;;;;;;;;5017249;28;20179;-63
2022/03/29 06:32:30;;;;;;;50.70;37.13;;;;;;;;;;5035765;28;20245;-63
2022/03/29 06:34:56;;;;;;;49.87;36.60;;;;;;;;;;5035377;28;20187;-63
2022/03/29 06:37:22;;;;;;;48.93;36.97;;;;;;;;;;5034956;28;20199;-63
2022/03/29 06:39:48;;;;;;;51.70;38.10;;;;;;;;;;5035209;28;20183;-63
2022/03/29 06:42:18;;;;;;;57.73;38.23;;;;;;;;;;5017289;28;20218;-63
2022/03/29 06:44:44;;;;;;;53.50;37.40;;;;;;;;;;5034749;28;20258;-63
2022/03/29 06:47:11;;;;;;;57.23;40.70;;;;;;;;;;5017411;28;20199;-62
2022/03/29 06:49:37;;;;;;;63.40;38.97;;;;;;;;;;5017409;28;20183;-63
2022/03/29 06:52:03;;;;;;;69.70;43.83;;;;;;;;;;5034585;28;20183;-63
2022/03/29 06:54:30;;;;;;;82.00;49.33;;;;;;;;;;5020447;28;20194;-63
2022/03/29 06:56:56;;;;;;;87.93;49.93;;;;;;;;;;5020553;28;20553;-62
2022/03/29 06:59:22;;;;;;;99.67;54.50;;;;;;;;;;5038869;28;20197;-63
2022/03/29 07:01:48;;;;;;;108.97;56.97;;;;;;;;;;5038581;28;20286;-61
2022/03/29 07:04:14;;;;;;;129.80;60.93;;;;;;;;;;5038848;28;20175;-62
2022/03/29 07:06:40;;;;;;;153.33;67.13;;;;;;;;;;5038782;28;20198;-61
2022/03/29 07:11:51;;;;;;;161.23;72.70;;;;;;;;;;5039095;28;20174;-61
2022/03/29 07:14:17;;;;;;;171.63;73.03;;;;;;;;;;5021182;28;20265;-61
2022/03/29 07:16:44;;;;;;;154.87;70.43;;;;;;;;;;5038707;28;20257;-61
2022/03/29 07:19:10;;;;;;;158.30;67.77;;;;;;;;;;5039037;28;20175;-61
2022/03/29 07:21:39;;;;;;;149.37;64.67;;;;;;;;;;5038423;28;20270;-61
2022/03/29 07:24:06;;;;;;;172.07;69.93;;;;;;;;;;5038468;28;20179;-62
2022/03/29 07:26:33;;;;;;;155.20;67.53;;;;;;;;;;5020867;28;20581;-61
2022/03/29 07:28:59;;;;;;;163.37;69.77;;;;;;;;;;5038267;28;20549;-61
2022/03/29 07:31:25;;;;;;;175.90;73.20;;;;;;;;;;5020693;28;20662;-61
2022/03/29 07:33:51;;;;;;;170.00;70.00;;;;;;;;;;5021294;28;20183;-61
2022/03/29 07:36:17;;;;;;;160.10;65.53;;;;;;;;;;5038644;28;20577;-61
2022/03/29 07:38:43;;;;;;;136.20;63.63;;;;;;;;;;5039324;28;20183;-61
2022/03/29 07:41:09;;;;;;;130.50;60.73;;;;;;;;;;5039502;28;20629;-61
2022/03/29 07:43:35;;;;;;;113.20;56.63;;;;;;;;;;5022163;28;20179;-61
2022/03/29 07:46:01;;;;;;;111.37;53.97;;;;;;;;;;5044663;28;20195;-60
2022/03/29 07:48:27;;;;;;;119.80;58.80;;;;;;;;;;5039712;28;20213;-61
2022/03/29 07:50:53;;;;;;;125.80;60.77;;;;;;;;;;5022549;28;20325;-62
2022/03/29 07:53:21;;;;;;;120.17;57.97;;;;;;;;;;5040095;28;20183;-62
2022/03/29 07:55:47;;;;;;;119.30;60.47;;;;;;;;;;5039645;28;20198;-62
2022/03/29 07:58:13;;;;;;;116.07;58.10;;;;;;;;;;5021584;28;20180;-62
2022/03/29 08:00:39;;;;;;;118.10;57.93;;;;;;;;;;5021472;28;20215;-62
2022/03/29 08:03:10;;;;;;;123.80;61.03;;;;;;;;;;5021895;28;20620;-62
2022/03/29 08:05:37;;;;;;;118.10;59.67;;;;;;;;;;5021711;28;20201;-62
2022/03/29 08:08:04;;;;;;;121.57;59.50;;;;;;;;;;5038204;28;20596;-62
2022/03/29 08:10:31;;;;;;;115.33;58.87;;;;;;;;;;5019639;28;20297;-62
2022/03/29 08:12:58;;;;;;;115.93;56.00;;;;;;;;;;5037715;28;20175;-62
2022/03/29 08:15:24;;;;;;;117.40;56.77;;;;;;;;;;5037287;28;20213;-61
2022/03/29 08:17:50;;;;;;;114.97;58.37;;;;;;;;;;5038547;28;20648;-62
2022/03/29 08:20:17;;;;;;;117.93;60.13;;;;;;;;;;5037370;28;20262;-61
2022/03/29 08:22:44;;;;;;;113.87;57.87;;;;;;;;;;5037205;28;20682;-62
2022/03/29 08:25:12;;;;;;;124.03;59.30;;;;;;;;;;5020997;28;20596;-61
2022/03/29 08:27:37;;;;;;;121.17;57.80;;;;;;;;;;5039758;28;20172;-62
2022/03/29 08:30:04;;;;;;;114.13;57.40;;;;;;;;;;5042667;28;20178;-63
2022/03/29 08:32:31;;;;;;;122.60;60.13;;;;;;;;;;5043200;28;20187;-62
2022/03/29 08:34:57;;;;;;;123.13;61.03;;;;;;;;;;5042690;28;20179;-62
2022/03/29 08:37:23;;;;;;;145.03;67.07;;;;;;;;;;5042325;28;20197;-62
2022/03/29 08:39:49;;;;;;;136.90;60.80;;;;;;;;;;5042343;28;20185;-62
2022/03/29 08:42:18;;;;;;;128.70;63.73;;;;;;;;;;5041288;28;20202;-63
2022/03/29 08:44:44;;;;;;;127.97;61.77;;;;;;;;;;5043343;28;20234;-62
2022/03/29 08:47:10;;;;;;;119.90;60.37;;;;;;;;;;5044435;28;20225;-63
2022/03/29 08:49:37;;;;;;;119.83;59.80;;;;;;;;;;5045971;28;20176;-62
2022/03/29 08:52:04;;;;;;;120.53;57.67;;;;;;;;;;5027702;28;20337;-62
2022/03/29 08:54:32;;;;;;;115.83;57.43;;;;;;;;;;5049591;28;20163;-63
2022/03/29 08:56:58;;;;;;;114.67;56.07;;;;;;;;;;5051596;28;20198;-63
2022/03/29 08:59:25;;;;;;;122.77;59.53;;;;;;;;;;5051790;28;20179;-63
2022/03/29 09:01:51;;;;;;;120.50;58.57;;;;;;;;;;5034274;28;20207;-62
2022/03/29 09:04:21;;;;;;;102.60;56.07;;;;;;;;;;5051298;28;20181;-62
2022/03/29 09:06:50;;;;;;;100.57;52.17;;;;;;;;;;5050523;28;20191;-62
2022/03/29 09:09:33;;;;;;;99.17;54.03;;;;;;;;;;5033701;28;20183;-62
2022/03/29 09:12:09;;;;;;;106.83;52.30;;;;;;;;;;5051525;28;20209;-63
2022/03/29 09:14:49;;;;;;;158.03;75.57;;;;;;;;;;5031642;28;20238;-62
2022/03/29 09:17:34;;;;;;;164.43;76.17;;;;;;;;;;5032565;28;20253;-62
2022/03/29 09:20:02;;;;;;;140.10;65.50;;;;;;;;;;5050026;28;20171;-63
2022/03/29 09:22:39;;;;;;;136.90;64.90;;;;;;;;;;5033490;28;20207;-63
2022/03/29 09:25:06;;;;;;;121.57;60.93;;;;;;;;;;5050368;28;20158;-61
2022/03/29 09:27:47;;;;;;;130.60;63.33;;;;;;;;;;5050202;28;20193;-64
2022/03/29 09:30:14;;;;;;;121.83;61.27;;;;;;;;;;5051819;28;20155;-62
2022/03/29 09:32:54;;;;;;;118.67;59.70;;;;;;;;;;5051468;28;20171;-62
2022/03/29 09:35:20;;;;;;;136.33;67.20;;;;;;;;;;5049863;28;20655;-63
2022/03/29 09:37:46;;;;;;;165.53;74.90;;;;;;;;;;5051634;28;20168;-65
2022/03/29 09:40:13;;;;;;;124.50;57.80;;;;;;;;;;5034484;28;20183;-62
2022/03/29 09:42:40;;;;;;;127.27;63.23;;;;;;;;;;5052557;28;20233;-63
2022/03/29 09:45:07;;;;;;;115.90;58.97;;;;;;;;;;5048929;28;20179;-62
2022/03/29 09:47:33;;;;;;;118.90;62.80;;;;;;;;;;5062750;22;20179;-63
2022/03/29 09:50:06;;;;;;;120.00;58.87;;;;;;;;;;5053686;28;20198;-66
2022/03/29 09:52:35;;;;;;;124.53;61.90;;;;;;;;;;5053831;28;20538;-66
2022/03/29 09:55:07;;;;;;;121.03;62.17;;;;;;;;;;5053522;28;20182;-66
2022/03/29 09:57:34;;;;;;;122.20;60.10;;;;;;;;;;5054047;28;20183;-65
2022/03/29 10:00:00;;;;;;;139.97;64.17;;;;;;;;;;5053536;28;20257;-66
2022/03/29 10:02:33;;;;;;;126.40;58.40;;;;;;;;;;5053984;28;20289;-66
2022/03/29 10:04:58;;;;;;;149.17;68.40;;;;;;;;;;5054079;28;20220;-65
2022/03/29 10:07:25;;;;;;;144.57;67.00;;;;;;;;;;5053858;28;20183;-65
2022/03/29 10:09:50;;;;;;;154.13;75.57;;;;;;;;;;5053393;28;20746;-66
2022/03/29 10:12:19;;;;;;;147.27;74.57;;;;;;;;;;5053203;28;20261;-66
2022/03/29 10:14:45;;;;;;;132.60;65.60;;;;;;;;;;5053616;28;20692;-66
2022/03/29 10:17:15;;;;;;;127.60;63.60;;;;;;;;;;5053677;28;20182;-66
2022/03/29 10:19:44;;;;;;;128.17;62.93;;;;;;;;;;5053424;28;20194;-66
2022/03/29 10:22:10;;;;;;;133.20;63.70;;;;;;;;;;5053411;28;20202;-66
2022/03/29 10:24:37;;;;;;;131.07;64.23;;;;;;;;;;5053449;28;20274;-66
2022/03/29 10:27:03;;;;;;;123.47;65.07;;;;;;;;;;5037795;28;20186;-65
2022/03/29 10:29:30;;;;;;;118.60;58.87;;;;;;;;;;5039365;28;20198;-66
2022/03/29 10:31:57;;;;;;;130.63;61.10;;;;;;;;;;5057320;28;20213;-67
2022/03/29 10:34:24;;;;;;;122.73;60.57;;;;;;;;;;5057271;28;20225;-65
2022/03/29 10:37:09;;;;;;;120.90;59.33;;;;;;;;;;5057300;28;20171;-66
2022/03/29 10:39:41;;;;;;;118.60;59.37;;;;;;;;;;5039123;28;20198;-66
2022/03/29 10:42:26;;;;;;;106.43;55.60;;;;;;;;;;5039191;28;20229;-66
2022/03/29 10:45:07;;;;;;;115.07;60.30;;;;;;;;;;5063110;28;20185;-66
2022/03/29 10:47:33;;;;;;;106.60;53.80;;;;;;;;;;5049556;28;20183;-66
2022/03/29 10:50:00;;;;;;;103.00;53.93;;;;;;;;;;5063001;28;20179;-66
2022/03/29 10:52:26;;;;;;;112.73;57.57;;;;;;;;;;5063883;28;20209;-66
2022/03/29 10:55:12;;;;;;;110.67;57.23;;;;;;;;;;5062710;28;20182;-67
2022/03/29 10:57:38;;;;;;;105.67;53.27;;;;;;;;;;5064092;28;20179;-64
2022/03/29 11:00:07;;;;;;;94.97;53.97;;;;;;;;;;5044499;28;20535;-66
2022/03/29 11:02:33;;;;;;;97.47;53.27;;;;;;;;;;5063837;28;20256;-65
2022/03/29 11:05:03;;;;;;;93.50;48.93;;;;;;;;;;5064848;28;20773;-66
2022/03/29 11:07:30;;;;;;;93.80;49.67;;;;;;;;;;5043972;28;20276;-66
2022/03/29 11:10:15;;;;;;;94.83;51.63;;;;;;;;;;5061423;28;20174;-65
2022/03/29 11:12:43;;;;;;;90.53;50.43;;;;;;;;;;5061104;28;20681;-65
2022/03/29 11:15:38;;;;;;;93.40;52.40;;;;;;;;;;5038876;28;20186;-65
2022/03/29 11:18:24;;;;;;;91.57;48.93;;;;;;;;;;5031603;28;20219;-66
2022/03/29 11:21:02;;;;;;;84.60;49.30;;;;;;;;;;5056670;28;20193;-65
2022/03/29 11:23:41;;;;;;;88.63;48.47;;;;;;;;;;5058009;28;20273;-65
2022/03/29 11:26:10;;;;;;;105.67;56.53;;;;;;;;;;5040198;28;20194;-65
2022/03/29 11:28:36;;;;;;;101.37;54.47;;;;;;;;;;5056541;28;20197;-66
2022/03/29 11:31:02;;;;;;;99.37;54.17;;;;;;;;;;5039112;28;20580;-66
2022/03/29 11:33:30;;;;;;;97.83;54.53;;;;;;;;;;5056637;28;20639;-67
2022/03/29 11:35:57;;;;;;;93.87;49.97;;;;;;;;;;5038674;28;20182;-66
2022/03/29 11:38:23;;;;;;;87.10;50.30;;;;;;;;;;5055464;28;20213;-66
2022/03/29 11:40:49;;;;;;;92.87;52.47;;;;;;;;;;5056352;28;20179;-66
2022/03/29 11:43:21;;;;;;;86.40;50.30;;;;;;;;;;5056064;28;20626;-66
2022/03/29 11:45:48;;;;;;;81.73;49.23;;;;;;;;;;5038419;28;20631;-66
2022/03/29 11:48:17;;;;;;;77.70;48.43;;;;;;;;;;5055944;28;20206;-65
2022/03/29 11:50:51;;;;;;;78.77;49.67;;;;;;;;;;5057214;28;20163;-66
2022/03/29 11:53:27;;;;;;;80.13;47.10;;;;;;;;;;5056100;28;20185;-66
2022/03/29 11:55:59;;;;;;;83.87;49.63;;;;;;;;;;5055679;28;20190;-66
2022/03/29 11:58:30;;;;;;;107.17;51.97;;;;;;;;;;5055870;28;20252;-65
2022/03/29 12:01:00;;;;;;;78.70;49.83;;;;;;;;;;5055938;28;20289;-66
2022/03/29 12:03:26;;;;;;;78.20;48.20;;;;;;;;;;5037846;28;20584;-65
2022/03/29 12:06:01;;;;;;;82.50;46.97;;;;;;;;;;5055533;28;20261;-66
2022/03/29 12:08:42;;;;;;;76.40;46.90;;;;;;;;;;5037553;28;20678;-65
2022/03/29 12:11:11;;;;;;;72.57;46.60;;;;;;;;;;5055817;28;20177;-66
2022/03/29 12:13:37;;;;;;;72.53;44.60;;;;;;;;;;5037622;28;20185;-65
2022/03/29 12:16:16;;;;;;;70.20;45.00;;;;;;;;;;5055888;28;20174;-66
2022/03/29 12:18:42;;;;;;;65.50;42.17;;;;;;;;;;5054985;28;20557;-66
2022/03/29 12:21:12;;;;;;;63.17;41.73;;;;;;;;;;5057489;28;20179;-65
2022/03/29 12:23:38;;;;;;;63.40;43.70;;;;;;;;;;5055420;28;20646;-66
2022/03/29 12:26:04;;;;;;;65.37;40.10;;;;;;;;;;5055313;28;20170;-66
2022/03/29 12:28:30;;;;;;;60.87;40.80;;;;;;;;;;5054900;28;20194;-66
2022/03/29 12:30:57;;;;;;;61.10;40.53;;;;;;;;;;5056063;28;20181;-66
2022/03/29 12:33:26;;;;;;;61.87;40.43;;;;;;;;;;5037379;28;20218;-66
2022/03/29 12:36:02;;;;;;;76.87;46.07;;;;;;;;;;5037153;28;20183;-66
2022/03/29 12:38:38;;;;;;;67.37;46.10;;;;;;;;;;5037089;28;20202;-65
2022/03/29 12:41:04;;;;;;;64.13;44.97;;;;;;;;;;5055485;28;20170;-65
2022/03/29 12:43:33;;;;;;;66.73;45.60;;;;;;;;;;5055501;28;20217;-65
2022/03/29 12:45:59;;;;;;;67.33;42.97;;;;;;;;;;5055071;28;20179;-65
2022/03/29 12:48:26;;;;;;;72.83;45.47;;;;;;;;;;5036601;28;20214;-66
2022/03/29 12:50:53;;;;;;;67.80;47.00;;;;;;;;;;5054976;28;20626;-67
2022/03/29 12:53:19;;;;;;;71.30;45.80;;;;;;;;;;5055018;28;20178;-65
2022/03/29 12:55:55;;;;;;;78.27;47.67;;;;;;;;;;5055176;28;20546;-65
2022/03/29 12:58:31;;;;;;;65.40;42.67;;;;;;;;;;5054779;28;20194;-65
2022/03/29 13:00:57;;;;;;;66.73;43.43;;;;;;;;;;5055255;28;20550;-65
2022/03/29 13:03:23;;;;;;;63.30;42.00;;;;;;;;;;5036635;28;20276;-65
2022/03/29 13:05:50;;;;;;;62.60;42.00;;;;;;;;;;5054635;28;20643;-65
2022/03/29 13:08:21;;;;;;;60.57;42.17;;;;;;;;;;5054849;28;20689;-65
2022/03/29 13:10:49;;;;;;;63.17;42.63;;;;;;;;;;5054324;28;20176;-65
2022/03/29 13:13:21;;;;;;;62.83;40.73;;;;;;;;;;5054375;28;20228;-65
2022/03/29 13:16:05;;;;;;;57.13;37.87;;;;;;;;;;5054724;28;20162;-65
2022/03/29 13:18:35;;;;;;;64.83;38.00;;;;;;;;;;5054236;28;20275;-65
2022/03/29 13:21:14;;;;;;;53.47;34.47;;;;;;;;;;5054586;28;20178;-65
2022/03/29 13:23:44;;;;;;;39.80;26.03;;;;;;;;;;5036831;28;20269;-65
2022/03/29 13:26:12;;;;;;;40.13;30.00;;;;;;;;;;5054377;28;20170;-65
2022/03/29 13:28:38;;;;;;;44.10;31.67;;;;;;;;;;5054060;28;20242;-65
2022/03/29 13:31:06;;;;;;;48.33;32.53;;;;;;;;;;5053969;28;20639;-66
2022/03/29 13:33:32;;;;;;;47.07;32.23;;;;;;;;;;5053638;28;20550;-65
2022/03/29 13:35:58;;;;;;;46.13;32.20;;;;;;;;;;5053785;28;20183;-65
2022/03/29 13:38:26;;;;;;;40.13;30.23;;;;;;;;;;5035639;28;20206;-66
2022/03/29 13:40:53;;;;;;;39.70;28.40;;;;;;;;;;5035817;28;20186;-66
2022/03/29 13:43:19;;;;;;;41.57;28.77;;;;;;;;;;5035720;28;20213;-65
2022/03/29 13:45:45;;;;;;;41.87;28.80;;;;;;;;;;5053800;28;20527;-65
2022/03/29 13:48:12;;;;;;;36.10;27.53;;;;;;;;;;5053644;28;20638;-67
2022/03/29 13:50:38;;;;;;;31.50;20.87;;;;;;;;;;5035428;28;20201;-65
2022/03/29 13:53:05;;;;;;;32.70;24.57;;;;;;;;;;5053634;28;20206;-65
2022/03/29 13:55:34;;;;;;;32.50;23.70;;;;;;;;;;5035300;28;20647;-65
2022/03/29 13:58:00;;;;;;;33.70;22.50;;;;;;;;;;5053423;28;20194;-65
2022/03/29 14:00:26;;;;;;;31.87;22.70;;;;;;;;;;5053135;28;20642;-66
2022/03/29 14:02:52;;;;;;;33.33;23.80;;;;;;;;;;5052627;28;20252;-65
2022/03/29 14:05:18;;;;;;;31.90;21.67;;;;;;;;;;5053470;28;20224;-66
2022/03/29 14:07:44;;;;;;;28.23;19.20;;;;;;;;;;5052935;28;20190;-65
2022/03/29 14:10:10;;;;;;;30.67;20.40;;;;;;;;;;5053222;28;20175;-66
2022/03/29 14:12:36;;;;;;;28.37;19.60;;;;;;;;;;5053741;28;20587;-66
2022/03/29 14:15:03;;;;;;;30.20;20.10;;;;;;;;;;5035297;28;20546;-66
2022/03/29 14:17:28;;;;;;;27.40;21.23;;;;;;;;;;5053172;28;20214;-66
2022/03/29 14:19:55;;;;;;;27.33;19.77;;;;;;;;;;5035346;28;20190;-66
2022/03/29 14:22:21;;;;;;;24.67;20.10;;;;;;;;;;5053983;28;20198;-66
2022/03/29 14:24:47;;;;;;;30.37;20.20;;;;;;;;;;5054519;28;20181;-66